Aérodrome :
LOGIN :

S'inscrire | Disclaimer

   EN    FR    IT 

 










Légende :    VFR   VFR Marginal   IFR   IFR Intensif   IFR Très Intensif
Visi : 
Plafond : 
>= 8 km
>= 3000ft
5 à 8 km
1000 à 3000 ft
1500m à 5 km
500 à 1000 ft
800 à 1500m
200 à 500 ft
< 800m
< 200 ft
Symboles :   Orages  Brouillard  Fortes neiges  Fortes précipitations  Vent > 20 kt
SIGMETs :   Divers  Orages  Givrage  Turbulence  Onde Orograph.  Cendres Volcan.






- Altitude de l'aérodrome : 348 ft
- Code IATA : LDV


LFRJ - Landivisiau

DERNIER METAR :
  • 172100Z AUTO 21013KT 9999 FEW028/// SCT062/// BKN072/// ///CB 13/10 Q1003

METARs EXPIRÉS :
  • 172030Z AUTO 21015KT 9999 FEW018/// SCT072/// ///TCU 12/10 Q1003
  • 172000Z AUTO 21014KT 9999 FEW028/// ///TCU 12/10 Q1004 TEMPO 21020G35KT 2000 TSRA BKN010CB
  • 171930Z AUTO 20011KT 9999 FEW016 SCT048 BKN070 13/11 Q1004 TEMPO 21020G35KT 2000 TSRA BKN010CB
  • 171900Z AUTO 20013KT 9999 FEW018 SCT035 BKN066 12/10 Q1005 TEMPO 21015G25KT 4000 SHRA SCT010CB BKN015TCU
  • 171830Z AUTO 21011KT 9999 FEW026 BKN047 BKN066 12/10 Q1005 TEMPO 21015G25KT 4000 SHRA SCT010CB BKN015TCU

TAF TAF LFRJ
Valide du 17 à 18h jusqu'au 18 à 03h UTC


171700Z 1718/1803 20012KT 9999 SCT025 SCT045
TEMPO 1718/1803 21015G25KT 4000 SHRA SCT010CB BKN015TCU
PROB40
TEMPO 1721/1802 21020G35KT 2000 TSRA BKN010CB



MET'MAP, la Météo Aéronautique d'un coup d'oeil ! - Copyright ORBIFLY Décembre 2007 - Disclaimer

ORBIFLY MET'MAP TEAM :

Programmation & Développement : Alexandra Zaïnal
Conception & Développement : Baudouin d'Aumeries
Co-Programmation & Développement : Marc-Olivier Méhu
Soutien technique & logistique : Manuel Goepfert

Contact : metmap@orbifly.com




SOURCES & CREDITS :

   NOAA